Terminal Aerodrome Forecast
Issued by NWS Missoula, MT

Home | Current Version | Previous Version | Text Only | Print | Product List | Glossary On
Versions: 1 2 3 4 5 6 7 8 9 10 11 12 13 14 15 16 17 18 19 20 21
157
FTUS45 KMSO 192323
TAFMSO
TAF
KMSO 192323Z 2000/2024 00000KT P6SM SKC
     FM200900 14005KT 6SM -SN BR OVC040
     FM201200 13005KT 4SM -SNRA BR BKN020 OVC035
     FM202000 24006KT 5SM -RA BR BKN010 OVC020=

USA.gov is the U.S. government's official web portal to all federal, state and local government web resources and services.